Strensall, United Kingdom
Current Conditions -  °F | °C
As of 12:50 PM on Friday 19 Dec 2014 (Local Time) from EGXU Reporting Station
Clear Clear  
Wind Chill: 37°   Ceiling: Unl
Heat Index: 45°   Visibility: 6mi
Dew Point: 34°   Wind: 17mph
Humidity: 66%   Direction: 270°W
Pressure: 29.8"   Gusts: 29mph
Location:  54.04°N, 1.04°W
Report Text: EGXU 191250Z 27015G25KT CAVOK 07/01 Q1009 BLU TEMPO 27020G35KT BLU
Loading
Personal Weather Stations






























Interactive Weather Map New forecast layout! Learn more

10-Day Weather Forecast

Advertisements
Track Severe Weather on mobile